Shaw Air Force Base
KSSC : now visible

Airfield :











YOU CAN JOIN US ON...

 
LOGIN :

Register | Disclaimer

   EN    FR    IT 

 









Legend :    VFR   Marginal VFR   IFR   Intensive IFR   Very Intensive IFR
Visi :
Ceiling :
>= 8 km
>= 3000ft
5 to 8 km
1000 to 3000 ft
1500m to 5 km
500 to 1000 ft
800 to 1500m
200 to 500 ft
< 800m
< 200 ft
Symbols :   Thunderstorms  Fog  Heavy snow  Heavy precipitations  Wind > 20 kt







- Airport Elevation : 241 ft


KSSC - Shaw Air Force Base

CURRENT METAR :
  • 170356Z AUTO 04009KT 10SM OVC012 07/04 A2995 RMK AO2 SLP144 T00720043 TSNO $

EXPIRED METARs :
  • 170256Z AUTO 05009KT 10SM OVC013 07/04 A2994 RMK AO2 SLP140 T00740044 52020 TSNO $
  • 170156Z AUTO 07006KT 10SM OVC013 07/05 A2992 RMK AO2 SLP134 T00740045 TSNO $
  • 170121Z AUTO 06007KT 10SM OVC014 08/05 A2991 RMK AO2 SLP130 TSNO $

TAF AMD TAF KSSC
Valid from the 17 at 02:00 until the 18 at 08:00 UTC


170200Z 1702/1808 04009KT 9999 OVC012 QNH2980INS
BECMG 1704/1705 06009KT 9999 OVC012 QNH2992INS
BECMG 1711/1712 06009KT 9999 OVC008 QNH2998INS
BECMG 1717/1718 07006KT 9999 OVC004 QNH3000INS
BECMG 1719/1720 08006KT 8000 -RA OVC006 QNH2994INS
BECMG 1802/1803 13009KT 8000 -RA OVC006 QNH2988INS TX12/1721Z TN04/1715Z
KZJX FIR / North America



MET'MAP, your aeronautical weather chart ! - Copyright ORBIFLY December 2007 - Disclaimer

ORBIFLY MET'MAP TEAM :

Programming & Development : Alexandra Zaïnal
Concept & Development : Baudouin d'Aumeries
Co-Development & Prog : Marc-Olivier Méhu
Technical & hardware support : Manuel Goepfert

Contact : metmap@orbifly.com




SOURCES & CREDITS :

   NOAA       Earth
Advisory